createdAt,value
2019-02-26T00:03:59.190Z,90.50
2019-02-26T00:08:05.508Z,90.40
2019-02-26T00:12:10.698Z,90.90
2019-02-26T00:16:18.400Z,90.50
2019-02-26T00:20:23.164Z,90.80
2019-02-26T00:24:30.550Z,90.60
2019-02-26T00:28:36.589Z,90.60
2019-02-26T00:32:42.140Z,90.40
2019-02-26T00:36:47.403Z,90.50
2019-02-26T00:40:52.658Z,90.50
2019-02-26T00:45:00.120Z,90.00
2019-02-26T00:49:05.775Z,90.00
2019-02-26T00:53:12.238Z,89.50
2019-02-26T00:57:17.558Z,90.10
2019-02-26T01:01:23.868Z,89.00
2019-02-26T01:05:29.061Z,89.30
2019-02-26T01:09:34.758Z,89.50
2019-02-26T01:13:40.141Z,89.40
2019-02-26T01:17:45.366Z,89.50
2019-02-26T01:21:50.998Z,89.50
2019-02-26T01:25:56.194Z,89.80
2019-02-26T01:30:03.363Z,89.80
2019-02-26T01:34:11.014Z,90.00
2019-02-26T01:38:16.633Z,90.10
2019-02-26T01:42:24.341Z,90.20
2019-02-26T01:46:30.022Z,86.40
2019-02-26T01:50:37.859Z,85.80
2019-02-26T01:54:42.890Z,85.10
2019-02-26T01:58:56.383Z,79.70
2019-02-26T02:02:55.318Z,79.70
2019-02-26T02:07:03.507Z,80.20
2019-02-26T02:11:09.335Z,81.60
2019-02-26T02:15:17.916Z,83.20
2019-02-26T02:19:23.393Z,84.40
2019-02-26T02:23:30.333Z,84.90
2019-02-26T02:27:35.602Z,85.50
2019-02-26T02:31:40.953Z,86.10
2019-02-26T02:35:46.141Z,88.20
2019-02-26T02:39:51.381Z,87.50
2019-02-26T02:43:56.653Z,87.90
2019-02-26T02:48:03.272Z,89.30
2019-02-26T02:52:11.852Z,90.20
2019-02-26T02:56:17.977Z,90.50
2019-02-26T03:00:26.060Z,91.00
2019-02-26T03:04:31.734Z,91.30
2019-02-26T03:08:39.297Z,91.20
2019-02-26T03:12:48.644Z,91.20
2019-02-26T03:16:53.383Z,91.00
2019-02-26T03:20:59.945Z,91.30
2019-02-26T03:25:05.339Z,91.30
2019-02-26T03:29:10.577Z,91.90
2019-02-26T03:33:15.939Z,91.60
2019-02-26T03:37:23.269Z,91.70
2019-02-26T03:41:29.078Z,91.90
2019-02-26T03:45:35.001Z,92.40
2019-02-26T03:49:42.232Z,92.50
2019-02-26T03:53:47.333Z,93.00
2019-02-26T03:57:54.327Z,92.90
2019-02-26T04:01:59.704Z,92.90
2019-02-26T04:06:07.513Z,92.90
2019-02-26T04:10:11.860Z,92.90
2019-02-26T04:14:18.110Z,92.50
2019-02-26T04:18:24.155Z,92.10
2019-02-26T04:22:31.130Z,92.10
2019-02-26T04:27:17.255Z,91.20
2019-02-26T04:31:54.531Z,90.50
2019-02-26T04:36:54.971Z,90.00
2019-02-26T04:41:39.707Z,85.90
2019-02-26T04:46:36.690Z,83.60
2019-02-26T04:50:41.570Z,81.60
2019-02-26T04:54:47.952Z,81.90
2019-02-26T04:58:53.611Z,80.80
2019-02-26T05:02:58.760Z,79.00
2019-02-26T05:07:05.151Z,76.30
2019-02-26T05:11:14.740Z,76.50
2019-02-26T05:15:20.284Z,76.20
2019-02-26T05:19:24.601Z,76.90
2019-02-26T05:23:31.703Z,77.70
2019-02-26T05:27:38.922Z,76.70
2019-02-26T05:31:43.523Z,76.80
2019-02-26T05:35:51.493Z,77.80
2019-02-26T05:39:56.036Z,77.60
2019-02-26T05:44:04.170Z,77.60
2019-02-26T05:48:07.975Z,78.50
2019-02-26T05:52:13.095Z,78.40
2019-02-26T05:56:20.162Z,78.60
2019-02-26T06:00:28.447Z,78.40
2019-02-26T06:04:32.028Z,79.80
2019-02-26T06:08:39.249Z,78.40
2019-02-26T06:12:46.609Z,78.60
2019-02-26T06:16:53.753Z,78.60
2019-02-26T06:21:00.648Z,78.50
2019-02-26T06:25:09.614Z,79.00
2019-02-26T06:29:11.270Z,80.10
2019-02-26T06:33:16.881Z,81.80
2019-02-26T06:37:23.689Z,80.10
2019-02-26T06:41:28.773Z,80.00
2019-02-26T06:45:35.568Z,81.00
2019-02-26T06:49:42.801Z,78.80
2019-02-26T06:53:49.819Z,79.00
2019-02-26T06:57:58.173Z,78.30
2019-02-26T07:02:03.447Z,78.30
2019-02-26T07:06:08.764Z,76.90
2019-02-26T07:10:18.346Z,76.50
2019-02-26T07:14:22.446Z,76.60
2019-02-26T07:18:28.638Z,75.40
2019-02-26T07:22:33.807Z,74.30
2019-02-26T07:26:41.084Z,72.60
2019-02-26T07:30:46.906Z,71.20
2019-02-26T07:34:52.286Z,70.00
2019-02-26T07:38:57.453Z,66.80
2019-02-26T07:43:04.887Z,60.60
2019-02-26T07:47:11.289Z,53.70
2019-02-26T07:51:16.601Z,51.40
2019-02-26T07:55:21.762Z,49.00
2019-02-26T07:59:27.872Z,48.90
2019-02-26T08:03:33.011Z,46.80
2019-02-26T08:07:37.971Z,43.00
2019-02-26T08:11:45.823Z,43.20
2019-02-26T08:15:49.523Z,41.00
2019-02-26T08:19:54.405Z,40.40
2019-02-26T08:23:59.561Z,39.90
2019-02-26T08:28:04.455Z,38.70
2019-02-26T08:32:09.390Z,38.90
2019-02-26T08:36:14.380Z,38.80
2019-02-26T08:40:19.447Z,38.20
2019-02-26T08:44:24.323Z,37.90
2019-02-26T08:48:29.627Z,38.50
2019-02-26T08:52:34.525Z,35.70
2019-02-26T08:56:40.958Z,34.60
2019-02-26T09:00:46.153Z,32.70
2019-02-26T09:04:51.079Z,32.00
2019-02-26T09:08:57.944Z,30.60
2019-02-26T09:13:02.584Z,31.30
2019-02-26T09:17:07.554Z,32.70
2019-02-26T09:21:13.489Z,33.40
2019-02-26T09:25:21.027Z,33.70
2019-02-26T09:29:25.583Z,34.30
2019-02-26T09:33:32.839Z,34.30
2019-02-26T09:37:37.061Z,35.00
2019-02-26T09:41:44.939Z,35.80
2019-02-26T09:45:50.507Z,37.30
2019-02-26T09:49:56.184Z,37.40
2019-02-26T09:54:01.614Z,36.90
2019-02-26T09:58:06.510Z,36.50
2019-02-26T10:02:11.519Z,37.10
2019-02-26T10:06:18.611Z,38.00
2019-02-26T10:10:25.368Z,35.80
2019-02-26T10:14:31.097Z,35.70
2019-02-26T10:18:36.875Z,36.20
2019-02-26T10:22:41.761Z,36.10
2019-02-26T10:26:46.650Z,34.30
2019-02-26T10:30:54.411Z,34.50
2019-02-26T10:34:58.497Z,33.90
2019-02-26T10:39:04.007Z,33.50
2019-02-26T10:43:08.901Z,33.90
2019-02-26T10:47:13.990Z,33.20
2019-02-26T10:51:25.822Z,30.40
2019-02-26T10:55:31.459Z,28.50
2019-02-26T10:59:32.502Z,26.60
2019-02-26T11:03:40.914Z,25.30
2019-02-26T11:07:44.208Z,23.20
2019-02-26T11:11:49.286Z,22.60
2019-02-26T11:15:56.676Z,23.10
2019-02-26T11:20:01.181Z,22.20
2019-02-26T11:24:08.627Z,22.20
2019-02-26T11:28:14.038Z,23.10
2019-02-26T11:32:19.020Z,22.20
2019-02-26T11:36:25.161Z,21.90
2019-02-26T11:40:30.744Z,21.10
2019-02-26T11:44:35.778Z,21.20
2019-02-26T11:48:40.763Z,20.80
2019-02-26T11:52:45.680Z,21.10
2019-02-26T11:56:52.484Z,18.70
2019-02-26T12:00:58.993Z,18.00
2019-02-26T12:05:05.622Z,17.90
2019-02-26T12:09:11.410Z,17.20
2019-02-26T12:13:19.715Z,17.60
2019-02-26T12:17:24.228Z,16.40
2019-02-26T12:21:29.853Z,16.00
2019-02-26T12:25:35.946Z,15.80
2019-02-26T12:29:43.652Z,15.70
2019-02-26T12:33:47.857Z,15.70
2019-02-26T12:37:55.708Z,14.20
2019-02-26T12:41:59.562Z,13.80
2019-02-26T12:46:05.432Z,12.60
2019-02-26T12:50:14.159Z,13.30
2019-02-26T12:54:19.039Z,13.90
2019-02-26T12:58:27.555Z,12.80
2019-02-26T13:02:31.588Z,13.20
2019-02-26T13:06:38.273Z,14.70
2019-02-26T13:10:46.647Z,12.30
2019-02-26T13:14:51.217Z,12.80
2019-02-26T13:19:00.791Z,12.00
2019-02-26T13:23:16.276Z,11.20
2019-02-26T13:27:09.680Z,10.40
2019-02-26T13:31:18.306Z,10.90
2019-02-26T13:35:22.590Z,10.00
2019-02-26T13:39:36.813Z,9.80
2019-02-26T13:43:34.338Z,11.20
2019-02-26T13:47:39.359Z,11.80
2019-02-26T13:51:44.353Z,11.90
2019-02-26T13:55:49.254Z,11.90
2019-02-26T13:59:54.162Z,10.50
2019-02-26T14:03:59.068Z,10.00
2019-02-26T14:08:04.370Z,10.80
2019-02-26T14:12:09.317Z,11.10
2019-02-26T14:16:14.247Z,10.50
2019-02-26T14:20:19.393Z,13.40
2019-02-26T14:24:24.481Z,15.90
2019-02-26T14:28:34.952Z,16.70
2019-02-26T14:32:45.589Z,17.60
2019-02-26T14:36:58.843Z,18.30
2019-02-26T14:41:10.081Z,18.40
2019-02-26T14:45:21.256Z,18.60
2019-02-26T14:49:34.371Z,18.30
2019-02-26T14:53:44.775Z,18.60
2019-02-26T14:57:49.872Z,18.60
2019-02-26T15:01:54.883Z,18.90
2019-02-26T15:05:59.767Z,19.20
2019-02-26T15:10:04.878Z,18.40
2019-02-26T15:14:09.780Z,19.40
2019-02-26T15:18:14.809Z,19.40
2019-02-26T15:22:20.037Z,18.40
2019-02-26T15:26:24.930Z,19.40
2019-02-26T15:30:29.927Z,19.30
2019-02-26T15:34:34.820Z,19.50
2019-02-26T15:38:39.750Z,19.20
2019-02-26T15:42:44.818Z,19.20
2019-02-26T15:46:49.730Z,20.00
2019-02-26T15:50:54.663Z,19.20
2019-02-26T15:54:59.804Z,19.00
2019-02-26T15:59:05.271Z,20.50
2019-02-26T16:03:10.347Z,21.90
2019-02-26T16:07:16.613Z,18.90
2019-02-26T16:11:21.537Z,21.00
2019-02-26T16:15:26.400Z,19.90
2019-02-26T16:19:31.296Z,19.90
2019-02-26T16:23:36.235Z,20.60
2019-02-26T16:27:41.121Z,22.00
2019-02-26T16:31:46.049Z,23.60
2019-02-26T16:35:52.285Z,24.60
2019-02-26T16:39:58.197Z,22.60
2019-02-26T16:44:03.643Z,23.40
2019-02-26T16:48:08.520Z,22.90
2019-02-26T16:52:13.554Z,23.40
2019-02-26T16:56:21.393Z,24.70
2019-02-26T17:00:25.138Z,25.90
2019-02-26T17:04:30.919Z,27.40
2019-02-26T17:08:35.948Z,28.10
2019-02-26T17:12:40.953Z,28.00
2019-02-26T17:16:45.914Z,27.90
2019-02-26T17:20:51.052Z,26.20
2019-02-26T17:24:56.020Z,27.00
2019-02-26T17:29:00.927Z,29.40
2019-02-26T17:33:06.041Z,30.20
2019-02-26T17:37:10.917Z,31.80
2019-02-26T17:41:16.861Z,33.80
2019-02-26T17:45:21.932Z,32.90
2019-02-26T17:49:26.834Z,33.00
2019-02-26T17:53:31.746Z,35.20
2019-02-26T17:57:36.945Z,35.60
2019-02-26T18:01:41.971Z,34.90
2019-02-26T18:05:51.323Z,36.80
2019-02-26T18:09:53.474Z,37.80
2019-02-26T18:14:00.192Z,36.90
2019-02-26T18:18:05.117Z,37.70
2019-02-26T18:22:10.010Z,38.90
2019-02-26T18:26:17.533Z,39.40
2019-02-26T18:30:23.062Z,40.30
2019-02-26T18:34:27.979Z,41.80
2019-02-26T18:38:32.886Z,42.50
2019-02-26T18:42:38.726Z,43.20
2019-02-26T18:46:44.346Z,40.90
2019-02-26T18:50:49.274Z,42.10
2019-02-26T18:54:55.036Z,42.80
2019-02-26T18:59:00.008Z,42.80
2019-02-26T19:03:08.654Z,43.90
2019-02-26T19:07:12.554Z,44.00
2019-02-26T19:11:17.442Z,44.00
2019-02-26T19:15:22.538Z,45.00
2019-02-26T19:19:27.479Z,44.80
2019-02-26T19:23:32.399Z,43.50
2019-02-26T19:27:37.451Z,44.10
2019-02-26T19:31:42.828Z,43.20
2019-02-26T19:35:48.170Z,43.70
2019-02-26T19:39:53.401Z,42.80
2019-02-26T19:44:00.143Z,44.50
2019-02-26T19:48:04.957Z,43.90
2019-02-26T19:52:10.077Z,43.20
2019-02-26T19:56:14.965Z,41.90
2019-02-26T20:00:20.513Z,41.90
2019-02-26T20:04:26.470Z,42.60
2019-02-26T20:08:31.356Z,42.20
2019-02-26T20:12:36.279Z,42.50
2019-02-26T20:16:41.262Z,42.60
2019-02-26T20:20:49.682Z,44.50
2019-02-26T20:24:54.851Z,44.50
2019-02-26T20:28:59.795Z,45.90
2019-02-26T20:33:04.881Z,46.70
2019-02-26T20:37:10.006Z,47.70
2019-02-26T20:41:14.968Z,50.20
2019-02-26T20:45:19.911Z,50.30
2019-02-26T20:49:25.856Z,50.20
2019-02-26T20:53:30.777Z,50.50
2019-02-26T20:57:37.702Z,52.60
2019-02-26T21:01:43.028Z,51.60
2019-02-26T21:05:48.278Z,52.80
2019-02-26T21:09:53.329Z,54.20
2019-02-26T21:13:58.226Z,55.10
2019-02-26T21:18:04.342Z,55.40
2019-02-26T21:22:09.280Z,55.80
2019-02-26T21:26:14.340Z,56.60
2019-02-26T21:30:19.650Z,56.30
2019-02-26T21:34:24.605Z,55.80
2019-02-26T21:38:29.607Z,55.80
2019-02-26T21:42:34.616Z,56.50
2019-02-26T21:46:39.904Z,56.90
2019-02-26T21:50:44.812Z,58.10
2019-02-26T21:54:50.027Z,59.00
2019-02-26T21:58:56.953Z,58.80
2019-02-26T22:03:01.483Z,59.60
2019-02-26T22:07:06.392Z,60.30
2019-02-26T22:11:11.902Z,61.00
2019-02-26T22:15:16.922Z,61.40
2019-02-26T22:19:21.834Z,62.10
2019-02-26T22:23:26.801Z,62.50
2019-02-26T22:27:33.763Z,62.50
2019-02-26T22:31:38.539Z,62.80
2019-02-26T22:35:43.509Z,63.50
2019-02-26T22:39:48.389Z,63.80
2019-02-26T22:43:53.326Z,63.90
2019-02-26T22:47:58.193Z,64.30
2019-02-26T22:52:03.106Z,64.80
2019-02-26T22:56:08.135Z,64.80
2019-02-26T23:01:01.972Z,64.80
2019-02-26T23:05:07.209Z,65.90
2019-02-26T23:09:17.610Z,67.50
2019-02-26T23:13:22.062Z,67.50
2019-02-26T23:17:29.042Z,67.80
2019-02-26T23:21:34.589Z,67.80
2019-02-26T23:25:39.934Z,68.60
2019-02-26T23:29:46.046Z,67.80
2019-02-26T23:33:51.259Z,68.50
2019-02-26T23:37:57.217Z,69.30
2019-02-26T23:42:05.858Z,69.70
2019-02-26T23:46:10.113Z,69.10
2019-02-26T23:50:15.248Z,69.70
2019-02-26T23:54:20.570Z,69.80
2019-02-26T23:58:25.752Z,70.20
